sensor_id;sensor_type;location;lat;lon;timestamp;temperature;humidity
32334;DHT22;18810;53.040;8.850;2023-12-29T00:00:08;11.00;99.90
32334;DHT22;18810;53.040;8.850;2023-12-29T00:02:34;11.10;99.90
32334;DHT22;18810;53.040;8.850;2023-12-29T00:05:00;11.10;99.90
32334;DHT22;18810;53.040;8.850;2023-12-29T00:07:26;11.10;99.90
32334;DHT22;18810;53.040;8.850;2023-12-29T00:09:51;11.10;99.90
32334;DHT22;18810;53.040;8.850;2023-12-29T00:12:17;11.10;99.90
32334;DHT22;18810;53.040;8.850;2023-12-29T00:14:43;11.10;99.90
32334;DHT22;18810;53.040;8.850;2023-12-29T00:17:09;11.10;99.90
32334;DHT22;18810;53.040;8.850;2023-12-29T00:19:34;11.10;99.90
32334;DHT22;18810;53.040;8.850;2023-12-29T00:22:00;10.80;99.90
32334;DHT22;18810;53.040;8.850;2023-12-29T00:24:29;10.90;99.90
32334;DHT22;18810;53.040;8.850;2023-12-29T00:29:23;10.90;99.90
32334;DHT22;18810;53.040;8.850;2023-12-29T00:31:49;10.80;99.90
32334;DHT22;18810;53.040;8.850;2023-12-29T00:34:15;10.90;99.90
32334;DHT22;18810;53.040;8.850;2023-12-29T00:36:40;10.80;99.90
32334;DHT22;18810;53.040;8.850;2023-12-29T00:39:06;10.80;99.90
32334;DHT22;18810;53.040;8.850;2023-12-29T00:41:32;10.90;99.90
32334;DHT22;18810;53.040;8.850;2023-12-29T00:43:58;10.80;99.90
32334;DHT22;18810;53.040;8.850;2023-12-29T00:46:23;10.90;99.90
32334;DHT22;18810;53.040;8.850;2023-12-29T00:48:49;10.70;99.90
32334;DHT22;18810;53.040;8.850;2023-12-29T00:51:15;10.70;99.90
32334;DHT22;18810;53.040;8.850;2023-12-29T00:53:40;10.70;99.90
32334;DHT22;18810;53.040;8.850;2023-12-29T00:56:12;10.60;99.90
32334;DHT22;18810;53.040;8.850;2023-12-29T00:58:38;10.80;99.90
32334;DHT22;18810;53.040;8.850;2023-12-29T01:01:06;10.80;99.90
32334;DHT22;18810;53.040;8.850;2023-12-29T01:03:33;10.70;99.90
32334;DHT22;18810;53.040;8.850;2023-12-29T01:05:59;10.60;99.90
32334;DHT22;18810;53.040;8.850;2023-12-29T01:08:24;10.70;99.90
32334;DHT22;18810;53.040;8.850;2023-12-29T01:10:50;10.50;99.90
32334;DHT22;18810;53.040;8.850;2023-12-29T01:13:16;10.60;99.90
32334;DHT22;18810;53.040;8.850;2023-12-29T01:15:42;10.60;99.90
32334;DHT22;18810;53.040;8.850;2023-12-29T01:18:11;10.60;99.90
32334;DHT22;18810;53.040;8.850;2023-12-29T01:20:37;10.70;99.90
32334;DHT22;18810;53.040;8.850;2023-12-29T01:23:05;10.80;99.90
32334;DHT22;18810;53.040;8.850;2023-12-29T01:25:31;10.70;99.90
32334;DHT22;18810;53.040;8.850;2023-12-29T01:27:56;10.60;99.90
32334;DHT22;18810;53.040;8.850;2023-12-29T01:30:23;10.50;99.90
32334;DHT22;18810;53.040;8.850;2023-12-29T01:32:48;10.40;99.90
32334;DHT22;18810;53.040;8.850;2023-12-29T01:35:14;10.30;99.90
32334;DHT22;18810;53.040;8.850;2023-12-29T01:37:40;10.30;99.90
32334;DHT22;18810;53.040;8.850;2023-12-29T01:40:06;10.60;99.90
32334;DHT22;18810;53.040;8.850;2023-12-29T01:42:32;10.30;99.90
32334;DHT22;18810;53.040;8.850;2023-12-29T01:44:57;10.20;99.90
32334;DHT22;18810;53.040;8.850;2023-12-29T01:47:23;10.30;99.90
32334;DHT22;18810;53.040;8.850;2023-12-29T01:49:50;10.20;99.90
32334;DHT22;18810;53.040;8.850;2023-12-29T01:52:16;9.90;99.90
32334;DHT22;18810;53.040;8.850;2023-12-29T01:54:43;8.90;99.90
32334;DHT22;18810;53.040;8.850;2023-12-29T01:57:10;9.80;99.90
32334;DHT22;18810;53.040;8.850;2023-12-29T01:59:36;9.70;99.90
32334;DHT22;18810;53.040;8.850;2023-12-29T02:02:04;9.60;99.90
32334;DHT22;18810;53.040;8.850;2023-12-29T02:04:30;9.50;99.90
32334;DHT22;18810;53.040;8.850;2023-12-29T02:06:56;9.70;99.90
32334;DHT22;18810;53.040;8.850;2023-12-29T02:09:23;9.70;99.90
32334;DHT22;18810;53.040;8.850;2023-12-29T02:11:49;9.70;99.90
32334;DHT22;18810;53.040;8.850;2023-12-29T02:14:16;9.60;99.90
32334;DHT22;18810;53.040;8.850;2023-12-29T02:19:43;9.70;99.90
32334;DHT22;18810;53.040;8.850;2023-12-29T02:22:10;9.70;99.90
32334;DHT22;18810;53.040;8.850;2023-12-29T02:24:37;9.60;99.90
32334;DHT22;18810;53.040;8.850;2023-12-29T02:29:33;9.80;99.90
32334;DHT22;18810;53.040;8.850;2023-12-29T02:31:59;9.80;99.90
32334;DHT22;18810;53.040;8.850;2023-12-29T02:34:28;9.70;99.90
32334;DHT22;18810;53.040;8.850;2023-12-29T02:36:56;10.00;99.90
32334;DHT22;18810;53.040;8.850;2023-12-29T02:39:23;9.70;99.90
32334;DHT22;18810;53.040;8.850;2023-12-29T02:41:48;9.60;99.90
32334;DHT22;18810;53.040;8.850;2023-12-29T02:44:14;9.40;99.90
32334;DHT22;18810;53.040;8.850;2023-12-29T02:46:40;9.80;99.90
32334;DHT22;18810;53.040;8.850;2023-12-29T02:49:05;9.60;99.90
32334;DHT22;18810;53.040;8.850;2023-12-29T02:51:36;9.50;99.90
32334;DHT22;18810;53.040;8.850;2023-12-29T02:54:02;9.00;99.90
32334;DHT22;18810;53.040;8.850;2023-12-29T02:56:28;9.30;99.90
32334;DHT22;18810;53.040;8.850;2023-12-29T02:58:53;9.30;99.90
32334;DHT22;18810;53.040;8.850;2023-12-29T03:01:19;9.70;99.90
32334;DHT22;18810;53.040;8.850;2023-12-29T03:03:45;9.30;99.90
32334;DHT22;18810;53.040;8.850;2023-12-29T03:06:11;9.40;99.90
32334;DHT22;18810;53.040;8.850;2023-12-29T03:08:36;9.20;99.90
32334;DHT22;18810;53.040;8.850;2023-12-29T03:11:02;9.20;99.90
32334;DHT22;18810;53.040;8.850;2023-12-29T03:13:28;9.10;99.90
32334;DHT22;18810;53.040;8.850;2023-12-29T03:15:53;9.30;99.90
32334;DHT22;18810;53.040;8.850;2023-12-29T03:18:19;9.10;99.90
32334;DHT22;18810;53.040;8.850;2023-12-29T03:20:45;9.10;99.90
32334;DHT22;18810;53.040;8.850;2023-12-29T03:23:10;9.10;99.90
32334;DHT22;18810;53.040;8.850;2023-12-29T03:25:36;9.10;99.90
32334;DHT22;18810;53.040;8.850;2023-12-29T03:28:02;9.20;99.90
32334;DHT22;18810;53.040;8.850;2023-12-29T03:30:27;9.10;99.90
32334;DHT22;18810;53.040;8.850;2023-12-29T03:32:53;9.60;99.90
32334;DHT22;18810;53.040;8.850;2023-12-29T03:35:19;9.10;99.90
32334;DHT22;18810;53.040;8.850;2023-12-29T03:37:44;9.10;99.90
32334;DHT22;18810;53.040;8.850;2023-12-29T03:40:10;9.50;99.90
32334;DHT22;18810;53.040;8.850;2023-12-29T03:42:36;9.30;99.90
32334;DHT22;18810;53.040;8.850;2023-12-29T03:45:02;9.40;99.90
32334;DHT22;18810;53.040;8.850;2023-12-29T03:47:27;9.30;99.90
32334;DHT22;18810;53.040;8.850;2023-12-29T03:49:55;9.50;99.90
32334;DHT22;18810;53.040;8.850;2023-12-29T03:54:47;9.50;99.90
32334;DHT22;18810;53.040;8.850;2023-12-29T03:57:13;9.60;99.90
32334;DHT22;18810;53.040;8.850;2023-12-29T03:59:38;9.70;99.90
32334;DHT22;18810;53.040;8.850;2023-12-29T04:02:04;9.80;99.90
32334;DHT22;18810;53.040;8.850;2023-12-29T04:04:30;9.70;99.90
32334;DHT22;18810;53.040;8.850;2023-12-29T04:06:55;9.80;99.90
32334;DHT22;18810;53.040;8.850;2023-12-29T04:09:21;9.80;99.90
32334;DHT22;18810;53.040;8.850;2023-12-29T04:11:47;9.70;99.90
32334;DHT22;18810;53.040;8.850;2023-12-29T04:14:13;10.20;99.90
32334;DHT22;18810;53.040;8.850;2023-12-29T04:16:39;9.90;99.90
32334;DHT22;18810;53.040;8.850;2023-12-29T04:19:05;9.90;99.90
32334;DHT22;18810;53.040;8.850;2023-12-29T04:21:30;9.70;99.90
32334;DHT22;18810;53.040;8.850;2023-12-29T04:23:56;9.80;99.90
32334;DHT22;18810;53.040;8.850;2023-12-29T04:26:22;9.90;99.90
32334;DHT22;18810;53.040;8.850;2023-12-29T04:28:47;9.90;99.90
32334;DHT22;18810;53.040;8.850;2023-12-29T04:31:13;10.10;99.90
32334;DHT22;18810;53.040;8.850;2023-12-29T04:33:39;9.80;99.90
32334;DHT22;18810;53.040;8.850;2023-12-29T04:36:05;10.00;99.90
32334;DHT22;18810;53.040;8.850;2023-12-29T04:38:31;10.30;99.90
32334;DHT22;18810;53.040;8.850;2023-12-29T04:40:56;10.20;99.90
32334;DHT22;18810;53.040;8.850;2023-12-29T04:43:22;10.20;99.90
32334;DHT22;18810;53.040;8.850;2023-12-29T04:45:48;10.20;99.90
32334;DHT22;18810;53.040;8.850;2023-12-29T04:48:13;10.20;99.90
32334;DHT22;18810;53.040;8.850;2023-12-29T04:50:39;10.40;99.90
32334;DHT22;18810;53.040;8.850;2023-12-29T04:53:05;10.20;99.90
32334;DHT22;18810;53.040;8.850;2023-12-29T04:55:30;10.50;99.90
32334;DHT22;18810;53.040;8.850;2023-12-29T04:57:56;10.10;99.90
32334;DHT22;18810;53.040;8.850;2023-12-29T05:00:22;10.20;99.90
32334;DHT22;18810;53.040;8.850;2023-12-29T05:02:47;10.20;99.90
32334;DHT22;18810;53.040;8.850;2023-12-29T05:05:13;10.20;99.90
32334;DHT22;18810;53.040;8.850;2023-12-29T05:07:39;10.20;99.90
32334;DHT22;18810;53.040;8.850;2023-12-29T05:10:05;10.10;99.90
32334;DHT22;18810;53.040;8.850;2023-12-29T05:12:31;10.10;99.90
32334;DHT22;18810;53.040;8.850;2023-12-29T05:14:56;10.00;99.90
32334;DHT22;18810;53.040;8.850;2023-12-29T05:17:22;9.90;99.90
32334;DHT22;18810;53.040;8.850;2023-12-29T05:19:48;9.70;99.90
32334;DHT22;18810;53.040;8.850;2023-12-29T05:22:13;9.60;99.90
32334;DHT22;18810;53.040;8.850;2023-12-29T05:24:43;9.60;99.90
32334;DHT22;18810;53.040;8.850;2023-12-29T05:27:08;9.60;99.90
32334;DHT22;18810;53.040;8.850;2023-12-29T05:29:34;9.50;99.90
32334;DHT22;18810;53.040;8.850;2023-12-29T05:32:00;9.50;99.90
32334;DHT22;18810;53.040;8.850;2023-12-29T05:34:28;9.50;99.90
32334;DHT22;18810;53.040;8.850;2023-12-29T05:36:53;9.70;99.90
32334;DHT22;18810;53.040;8.850;2023-12-29T05:39:19;9.70;99.90
32334;DHT22;18810;53.040;8.850;2023-12-29T05:41:45;9.80;99.90
32334;DHT22;18810;53.040;8.850;2023-12-29T05:44:11;9.60;99.90
32334;DHT22;18810;53.040;8.850;2023-12-29T05:46:36;9.70;99.90
32334;DHT22;18810;53.040;8.850;2023-12-29T05:49:02;9.70;99.90
32334;DHT22;18810;53.040;8.850;2023-12-29T05:51:28;9.80;99.90
32334;DHT22;18810;53.040;8.850;2023-12-29T05:53:53;9.80;99.90
32334;DHT22;18810;53.040;8.850;2023-12-29T05:56:20;9.80;99.90
32334;DHT22;18810;53.040;8.850;2023-12-29T06:01:12;9.90;99.90
32334;DHT22;18810;53.040;8.850;2023-12-29T06:03:37;9.90;99.90
32334;DHT22;18810;53.040;8.850;2023-12-29T06:06:03;9.90;99.90
32334;DHT22;18810;53.040;8.850;2023-12-29T06:08:29;9.90;99.90
32334;DHT22;18810;53.040;8.850;2023-12-29T06:10:55;10.00;99.90
32334;DHT22;18810;53.040;8.850;2023-12-29T06:13:21;9.90;99.90
32334;DHT22;18810;53.040;8.850;2023-12-29T06:15:46;9.80;99.90
32334;DHT22;18810;53.040;8.850;2023-12-29T06:18:12;9.70;99.90
32334;DHT22;18810;53.040;8.850;2023-12-29T06:20:38;9.70;99.90
32334;DHT22;18810;53.040;8.850;2023-12-29T06:23:04;9.80;99.90
32334;DHT22;18810;53.040;8.850;2023-12-29T06:25:29;9.70;99.90
32334;DHT22;18810;53.040;8.850;2023-12-29T06:27:55;9.60;99.90
32334;DHT22;18810;53.040;8.850;2023-12-29T06:30:21;9.70;99.90
32334;DHT22;18810;53.040;8.850;2023-12-29T06:32:47;9.70;99.90
32334;DHT22;18810;53.040;8.850;2023-12-29T06:35:12;9.70;99.90
32334;DHT22;18810;53.040;8.850;2023-12-29T06:37:39;9.70;99.90
32334;DHT22;18810;53.040;8.850;2023-12-29T06:40:08;9.70;99.90
32334;DHT22;18810;53.040;8.850;2023-12-29T06:42:34;9.80;99.90
32334;DHT22;18810;53.040;8.850;2023-12-29T06:45:00;9.70;99.90
32334;DHT22;18810;53.040;8.850;2023-12-29T06:49:52;9.60;99.90
32334;DHT22;18810;53.040;8.850;2023-12-29T06:52:19;9.90;99.90
32334;DHT22;18810;53.040;8.850;2023-12-29T06:54:45;9.80;99.90
32334;DHT22;18810;53.040;8.850;2023-12-29T06:57:11;10.20;99.90
32334;DHT22;18810;53.040;8.850;2023-12-29T06:59:40;9.90;99.90
32334;DHT22;18810;53.040;8.850;2023-12-29T07:02:05;9.80;99.90
32334;DHT22;18810;53.040;8.850;2023-12-29T07:04:31;10.20;99.90
32334;DHT22;18810;53.040;8.850;2023-12-29T07:06:57;9.90;99.90
32334;DHT22;18810;53.040;8.850;2023-12-29T07:09:25;9.90;99.90
32334;DHT22;18810;53.040;8.850;2023-12-29T07:11:51;9.80;99.90
32334;DHT22;18810;53.040;8.850;2023-12-29T07:14:16;9.90;99.90
32334;DHT22;18810;53.040;8.850;2023-12-29T07:16:43;9.70;99.90
32334;DHT22;18810;53.040;8.850;2023-12-29T07:19:09;10.00;99.90
32334;DHT22;18810;53.040;8.850;2023-12-29T07:21:34;9.90;99.90
32334;DHT22;18810;53.040;8.850;2023-12-29T07:24:00;9.90;99.90
32334;DHT22;18810;53.040;8.850;2023-12-29T07:26:26;9.90;99.90
32334;DHT22;18810;53.040;8.850;2023-12-29T07:28:52;9.80;99.90
32334;DHT22;18810;53.040;8.850;2023-12-29T07:31:20;9.80;99.90
32334;DHT22;18810;53.040;8.850;2023-12-29T07:33:47;10.00;99.90
32334;DHT22;18810;53.040;8.850;2023-12-29T07:36:12;9.90;99.90
32334;DHT22;18810;53.040;8.850;2023-12-29T07:38:38;10.20;99.90
32334;DHT22;18810;53.040;8.850;2023-12-29T07:41:04;9.80;99.90
32334;DHT22;18810;53.040;8.850;2023-12-29T07:43:31;10.00;99.90
32334;DHT22;18810;53.040;8.850;2023-12-29T07:45:57;10.10;99.90
32334;DHT22;18810;53.040;8.850;2023-12-29T07:48:22;9.90;99.90
32334;DHT22;18810;53.040;8.850;2023-12-29T07:50:48;9.80;99.90
32334;DHT22;18810;53.040;8.850;2023-12-29T07:53:14;10.00;99.90
32334;DHT22;18810;53.040;8.850;2023-12-29T07:55:40;9.80;99.90
32334;DHT22;18810;53.040;8.850;2023-12-29T07:58:06;9.60;99.90
32334;DHT22;18810;53.040;8.850;2023-12-29T08:00:32;9.90;99.90
32334;DHT22;18810;53.040;8.850;2023-12-29T08:02:58;9.80;99.90
32334;DHT22;18810;53.040;8.850;2023-12-29T08:05:25;9.90;99.90
32334;DHT22;18810;53.040;8.850;2023-12-29T08:10:16;9.80;99.90
32334;DHT22;18810;53.040;8.850;2023-12-29T08:12:42;9.60;99.90
32334;DHT22;18810;53.040;8.850;2023-12-29T08:15:08;9.70;99.90
32334;DHT22;18810;53.040;8.850;2023-12-29T08:17:34;9.50;99.90
32334;DHT22;18810;53.040;8.850;2023-12-29T08:19:59;9.70;99.90
32334;DHT22;18810;53.040;8.850;2023-12-29T08:22:29;9.60;99.90
32334;DHT22;18810;53.040;8.850;2023-12-29T08:24:55;9.60;99.90
32334;DHT22;18810;53.040;8.850;2023-12-29T08:27:24;9.60;99.90
32334;DHT22;18810;53.040;8.850;2023-12-29T08:29:53;9.70;99.90
32334;DHT22;18810;53.040;8.850;2023-12-29T08:32:19;9.70;99.90
32334;DHT22;18810;53.040;8.850;2023-12-29T08:34:45;9.80;99.90
32334;DHT22;18810;53.040;8.850;2023-12-29T08:37:11;9.70;99.90
32334;DHT22;18810;53.040;8.850;2023-12-29T08:39:36;9.80;99.90
32334;DHT22;18810;53.040;8.850;2023-12-29T08:42:02;10.10;99.90
32334;DHT22;18810;53.040;8.850;2023-12-29T08:44:28;9.50;99.90
32334;DHT22;18810;53.040;8.850;2023-12-29T08:49:20;9.10;99.90
32334;DHT22;18810;53.040;8.850;2023-12-29T08:51:46;8.70;99.90
32334;DHT22;18810;53.040;8.850;2023-12-29T08:54:12;8.60;99.90
32334;DHT22;18810;53.040;8.850;2023-12-29T08:56:38;8.30;99.90
32334;DHT22;18810;53.040;8.850;2023-12-29T08:59:04;8.10;99.90
32334;DHT22;18810;53.040;8.850;2023-12-29T09:08:47;6.90;99.90
32334;DHT22;18810;53.040;8.850;2023-12-29T09:11:13;7.20;99.90
32334;DHT22;18810;53.040;8.850;2023-12-29T09:13:39;7.20;99.90
32334;DHT22;18810;53.040;8.850;2023-12-29T09:16:05;7.20;99.90
32334;DHT22;18810;53.040;8.850;2023-12-29T09:20:57;7.80;99.90
32334;DHT22;18810;53.040;8.850;2023-12-29T09:23:23;7.70;99.90
32334;DHT22;18810;53.040;8.850;2023-12-29T09:25:49;8.00;99.90
32334;DHT22;18810;53.040;8.850;2023-12-29T09:28:15;7.70;99.90
32334;DHT22;18810;53.040;8.850;2023-12-29T09:30:40;7.60;99.90
32334;DHT22;18810;53.040;8.850;2023-12-29T09:33:06;7.60;99.90
32334;DHT22;18810;53.040;8.850;2023-12-29T09:37:58;7.70;99.90
32334;DHT22;18810;53.040;8.850;2023-12-29T09:40:25;7.70;99.90
32334;DHT22;18810;53.040;8.850;2023-12-29T09:42:52;7.70;99.90
32334;DHT22;18810;53.040;8.850;2023-12-29T09:45:23;7.90;99.90
32334;DHT22;18810;53.040;8.850;2023-12-29T09:47:51;7.80;99.90
32334;DHT22;18810;53.040;8.850;2023-12-29T09:50:19;8.00;99.90
32334;DHT22;18810;53.040;8.850;2023-12-29T09:52:48;8.00;99.90
32334;DHT22;18810;53.040;8.850;2023-12-29T09:55:15;8.10;99.90
32334;DHT22;18810;53.040;8.850;2023-12-29T09:57:41;8.40;99.90
32334;DHT22;18810;53.040;8.850;2023-12-29T10:00:10;8.40;99.90
32334;DHT22;18810;53.040;8.850;2023-12-29T10:02:37;8.30;99.90
32334;DHT22;18810;53.040;8.850;2023-12-29T10:05:04;8.80;99.90
32334;DHT22;18810;53.040;8.850;2023-12-29T10:07:35;8.70;99.90
32334;DHT22;18810;53.040;8.850;2023-12-29T10:10:02;8.70;99.90
32334;DHT22;18810;53.040;8.850;2023-12-29T10:12:30;8.80;99.90
32334;DHT22;18810;53.040;8.850;2023-12-29T10:15:18;8.80;99.90
32334;DHT22;18810;53.040;8.850;2023-12-29T10:25:25;8.30;99.90
32334;DHT22;18810;53.040;8.850;2023-12-29T10:27:51;8.10;99.90
32334;DHT22;18810;53.040;8.850;2023-12-29T10:30:17;8.20;99.90
32334;DHT22;18810;53.040;8.850;2023-12-29T10:32:48;7.90;99.90
32334;DHT22;18810;53.040;8.850;2023-12-29T10:35:14;7.30;99.90
32334;DHT22;18810;53.040;8.850;2023-12-29T10:37:40;6.80;99.90
32334;DHT22;18810;53.040;8.850;2023-12-29T10:40:07;6.80;99.90
32334;DHT22;18810;53.040;8.850;2023-12-29T10:42:33;6.60;99.90
32334;DHT22;18810;53.040;8.850;2023-12-29T10:45:09;6.90;99.90
32334;DHT22;18810;53.040;8.850;2023-12-29T10:47:43;6.90;99.90
32334;DHT22;18810;53.040;8.850;2023-12-29T10:52:35;6.90;99.90
32334;DHT22;18810;53.040;8.850;2023-12-29T10:55:09;7.00;99.90
32334;DHT22;18810;53.040;8.850;2023-12-29T10:57:37;7.00;99.90
32334;DHT22;18810;53.040;8.850;2023-12-29T11:00:03;7.10;99.90
32334;DHT22;18810;53.040;8.850;2023-12-29T11:02:29;6.90;99.90
32334;DHT22;18810;53.040;8.850;2023-12-29T11:05:06;7.00;99.90
32334;DHT22;18810;53.040;8.850;2023-12-29T11:07:39;7.00;99.90
32334;DHT22;18810;53.040;8.850;2023-12-29T11:10:09;7.00;99.90
32334;DHT22;18810;53.040;8.850;2023-12-29T11:12:38;7.10;99.90
32334;DHT22;18810;53.040;8.850;2023-12-29T11:15:06;7.30;99.90
32334;DHT22;18810;53.040;8.850;2023-12-29T11:17:36;7.10;99.90
32334;DHT22;18810;53.040;8.850;2023-12-29T11:20:03;7.20;99.90
32334;DHT22;18810;53.040;8.850;2023-12-29T11:22:31;7.30;99.90
32334;DHT22;18810;53.040;8.850;2023-12-29T11:25:00;7.40;99.90
32334;DHT22;18810;53.040;8.850;2023-12-29T11:27:28;7.60;99.90
32334;DHT22;18810;53.040;8.850;2023-12-29T11:29:56;7.60;99.90
32334;DHT22;18810;53.040;8.850;2023-12-29T11:38:24;8.00;99.90
32334;DHT22;18810;53.040;8.850;2023-12-29T11:41:31;8.20;99.90
32334;DHT22;18810;53.040;8.850;2023-12-29T11:43:59;8.30;99.90
32334;DHT22;18810;53.040;8.850;2023-12-29T11:46:38;8.40;99.90
32334;DHT22;18810;53.040;8.850;2023-12-29T11:49:04;8.30;99.90
32334;DHT22;18810;53.040;8.850;2023-12-29T11:51:34;8.50;99.90
32334;DHT22;18810;53.040;8.850;2023-12-29T11:54:01;8.20;99.90
32334;DHT22;18810;53.040;8.850;2023-12-29T11:56:40;8.20;99.90
32334;DHT22;18810;53.040;8.850;2023-12-29T11:59:14;8.10;99.90
32334;DHT22;18810;53.040;8.850;2023-12-29T12:01:40;8.00;99.90
32334;DHT22;18810;53.040;8.850;2023-12-29T12:04:38;7.80;99.90
32334;DHT22;18810;53.040;8.850;2023-12-29T12:09:34;7.70;99.90
32334;DHT22;18810;53.040;8.850;2023-12-29T12:12:04;7.90;99.90
32334;DHT22;18810;53.040;8.850;2023-12-29T12:14:50;7.80;99.90
32334;DHT22;18810;53.040;8.850;2023-12-29T12:19:59;7.90;99.90
32334;DHT22;18810;53.040;8.850;2023-12-29T12:22:25;7.90;99.90
32334;DHT22;18810;53.040;8.850;2023-12-29T12:24:56;8.00;99.90
32334;DHT22;18810;53.040;8.850;2023-12-29T12:27:23;7.80;99.90
32334;DHT22;18810;53.040;8.850;2023-12-29T12:29:55;7.90;99.90
32334;DHT22;18810;53.040;8.850;2023-12-29T12:32:28;8.00;99.90
32334;DHT22;18810;53.040;8.850;2023-12-29T12:34:55;8.10;99.90
32334;DHT22;18810;53.040;8.850;2023-12-29T12:37:28;8.00;99.90
32334;DHT22;18810;53.040;8.850;2023-12-29T12:42:22;8.40;99.90
32334;DHT22;18810;53.040;8.850;2023-12-29T12:44:54;8.30;99.90
32334;DHT22;18810;53.040;8.850;2023-12-29T12:47:27;8.10;99.90
32334;DHT22;18810;53.040;8.850;2023-12-29T12:49:55;8.20;99.90
32334;DHT22;18810;53.040;8.850;2023-12-29T12:52:20;8.20;99.90
32334;DHT22;18810;53.040;8.850;2023-12-29T12:54:47;8.30;99.90
32334;DHT22;18810;53.040;8.850;2023-12-29T12:57:18;8.20;99.90
32334;DHT22;18810;53.040;8.850;2023-12-29T13:02:10;8.40;99.90
32334;DHT22;18810;53.040;8.850;2023-12-29T13:04:40;8.50;99.90
32334;DHT22;18810;53.040;8.850;2023-12-29T13:07:06;8.20;99.90
32334;DHT22;18810;53.040;8.850;2023-12-29T13:09:31;8.50;99.90
32334;DHT22;18810;53.040;8.850;2023-12-29T13:12:13;8.50;99.90
32334;DHT22;18810;53.040;8.850;2023-12-29T13:14:39;8.50;99.90
32334;DHT22;18810;53.040;8.850;2023-12-29T13:17:06;8.40;99.90
32334;DHT22;18810;53.040;8.850;2023-12-29T13:19:32;8.40;99.90
32334;DHT22;18810;53.040;8.850;2023-12-29T13:21:59;8.90;99.90
32334;DHT22;18810;53.040;8.850;2023-12-29T13:24:26;8.60;99.90
32334;DHT22;18810;53.040;8.850;2023-12-29T13:26:57;8.80;99.90
32334;DHT22;18810;53.040;8.850;2023-12-29T13:29:25;8.70;99.90
32334;DHT22;18810;53.040;8.850;2023-12-29T13:32:05;8.70;99.90
32334;DHT22;18810;53.040;8.850;2023-12-29T13:38:17;8.80;99.90
32334;DHT22;18810;53.040;8.850;2023-12-29T13:40:28;8.70;99.90
32334;DHT22;18810;53.040;8.850;2023-12-29T13:43:02;8.70;99.90
32334;DHT22;18810;53.040;8.850;2023-12-29T13:45:29;8.70;99.90
32334;DHT22;18810;53.040;8.850;2023-12-29T13:47:56;8.70;99.90
32334;DHT22;18810;53.040;8.850;2023-12-29T13:50:23;8.90;99.90
32334;DHT22;18810;53.040;8.850;2023-12-29T13:52:49;8.60;99.90
32334;DHT22;18810;53.040;8.850;2023-12-29T13:55:25;8.80;99.90
32334;DHT22;18810;53.040;8.850;2023-12-29T13:57:51;8.50;99.90
32334;DHT22;18810;53.040;8.850;2023-12-29T14:00:24;8.40;99.90
32334;DHT22;18810;53.040;8.850;2023-12-29T14:06:07;8.60;99.90
32334;DHT22;18810;53.040;8.850;2023-12-29T14:08:33;8.50;99.90
32334;DHT22;18810;53.040;8.850;2023-12-29T14:11:00;8.50;99.90
32334;DHT22;18810;53.040;8.850;2023-12-29T14:13:26;8.40;99.90
32334;DHT22;18810;53.040;8.850;2023-12-29T14:15:52;8.30;99.90
32334;DHT22;18810;53.040;8.850;2023-12-29T14:20:46;8.50;99.90
32334;DHT22;18810;53.040;8.850;2023-12-29T14:23:13;8.30;99.90
32334;DHT22;18810;53.040;8.850;2023-12-29T14:25:39;8.40;99.90
32334;DHT22;18810;53.040;8.850;2023-12-29T14:28:18;8.40;99.90
32334;DHT22;18810;53.040;8.850;2023-12-29T14:30:44;8.40;99.90
32334;DHT22;18810;53.040;8.850;2023-12-29T14:33:10;8.40;99.90
32334;DHT22;18810;53.040;8.850;2023-12-29T14:35:36;8.50;99.90
32334;DHT22;18810;53.040;8.850;2023-12-29T14:38:03;8.50;99.90
32334;DHT22;18810;53.040;8.850;2023-12-29T14:40:29;8.50;99.90
32334;DHT22;18810;53.040;8.850;2023-12-29T14:42:55;8.50;99.90
32334;DHT22;18810;53.040;8.850;2023-12-29T14:45:21;8.70;99.90
32334;DHT22;18810;53.040;8.850;2023-12-29T14:47:46;8.60;99.90
32334;DHT22;18810;53.040;8.850;2023-12-29T14:50:14;8.70;99.90
32334;DHT22;18810;53.040;8.850;2023-12-29T14:52:40;8.70;99.90
32334;DHT22;18810;53.040;8.850;2023-12-29T14:55:06;9.00;99.90
32334;DHT22;18810;53.040;8.850;2023-12-29T14:57:32;8.50;99.90
32334;DHT22;18810;53.040;8.850;2023-12-29T14:59:57;8.80;99.90
32334;DHT22;18810;53.040;8.850;2023-12-29T15:02:23;8.80;99.90
32334;DHT22;18810;53.040;8.850;2023-12-29T15:07:16;9.10;99.90
32334;DHT22;18810;53.040;8.850;2023-12-29T15:09:42;8.80;99.90
32334;DHT22;18810;53.040;8.850;2023-12-29T15:12:08;8.90;99.90
32334;DHT22;18810;53.040;8.850;2023-12-29T15:14:34;8.90;99.90
32334;DHT22;18810;53.040;8.850;2023-12-29T15:16:59;8.90;99.90
32334;DHT22;18810;53.040;8.850;2023-12-29T15:19:25;9.00;99.90
32334;DHT22;18810;53.040;8.850;2023-12-29T15:21:51;9.10;99.90
32334;DHT22;18810;53.040;8.850;2023-12-29T15:24:22;8.90;99.90
32334;DHT22;18810;53.040;8.850;2023-12-29T15:26:48;9.10;99.90
32334;DHT22;18810;53.040;8.850;2023-12-29T15:29:13;9.10;99.90
32334;DHT22;18810;53.040;8.850;2023-12-29T15:31:43;9.00;99.90
32334;DHT22;18810;53.040;8.850;2023-12-29T15:34:12;9.10;99.90
32334;DHT22;18810;53.040;8.850;2023-12-29T15:36:38;9.00;99.90
32334;DHT22;18810;53.040;8.850;2023-12-29T15:39:04;9.00;99.90
32334;DHT22;18810;53.040;8.850;2023-12-29T15:41:33;9.20;99.90
32334;DHT22;18810;53.040;8.850;2023-12-29T15:43:59;9.00;99.90
32334;DHT22;18810;53.040;8.850;2023-12-29T15:46:25;9.00;99.90
32334;DHT22;18810;53.040;8.850;2023-12-29T15:48:51;8.90;99.90
32334;DHT22;18810;53.040;8.850;2023-12-29T15:51:17;9.00;99.90
32334;DHT22;18810;53.040;8.850;2023-12-29T15:53:43;8.90;99.90
32334;DHT22;18810;53.040;8.850;2023-12-29T15:56:16;8.90;99.90
32334;DHT22;18810;53.040;8.850;2023-12-29T15:58:44;8.90;99.90
32334;DHT22;18810;53.040;8.850;2023-12-29T16:01:10;8.90;99.90
32334;DHT22;18810;53.040;8.850;2023-12-29T16:03:35;9.00;99.90
32334;DHT22;18810;53.040;8.850;2023-12-29T16:06:01;8.90;99.90
32334;DHT22;18810;53.040;8.850;2023-12-29T16:08:28;8.90;99.90
32334;DHT22;18810;53.040;8.850;2023-12-29T16:10:54;8.80;99.90
32334;DHT22;18810;53.040;8.850;2023-12-29T16:13:20;8.80;99.90
32334;DHT22;18810;53.040;8.850;2023-12-29T16:15:46;8.80;99.90
32334;DHT22;18810;53.040;8.850;2023-12-29T16:18:14;8.90;99.90
32334;DHT22;18810;53.040;8.850;2023-12-29T16:20:40;8.80;99.90
32334;DHT22;18810;53.040;8.850;2023-12-29T16:23:06;8.90;99.90
32334;DHT22;18810;53.040;8.850;2023-12-29T16:25:33;8.80;99.90
32334;DHT22;18810;53.040;8.850;2023-12-29T16:27:58;8.80;99.90
32334;DHT22;18810;53.040;8.850;2023-12-29T16:30:24;8.70;99.90
32334;DHT22;18810;53.040;8.850;2023-12-29T16:32:51;8.70;99.90
32334;DHT22;18810;53.040;8.850;2023-12-29T16:35:16;8.70;99.90
32334;DHT22;18810;53.040;8.850;2023-12-29T16:37:42;8.60;99.90
32334;DHT22;18810;53.040;8.850;2023-12-29T16:40:09;8.70;99.90
32334;DHT22;18810;53.040;8.850;2023-12-29T16:42:35;8.70;99.90
32334;DHT22;18810;53.040;8.850;2023-12-29T16:45:01;8.50;99.90
32334;DHT22;18810;53.040;8.850;2023-12-29T16:47:28;8.50;99.90
32334;DHT22;18810;53.040;8.850;2023-12-29T16:49:54;8.50;99.90